createdAt,value
2018-02-10T00:01:19.969Z,82.17
2018-02-10T00:03:47.703Z,82.03
2018-02-10T00:06:15.323Z,81.93
2018-02-10T00:08:43.690Z,75.63
2018-02-10T00:11:11.364Z,76.37
2018-02-10T00:13:39.009Z,80.50
2018-02-10T00:16:06.660Z,70.50
2018-02-10T00:18:39.776Z,84.67
2018-02-10T00:21:07.450Z,75.63
2018-02-10T00:23:35.168Z,77.53
2018-02-10T00:28:34.660Z,84.60
2018-02-10T00:31:02.384Z,68.93
2018-02-10T00:36:09.199Z,84.78
2018-02-10T00:38:36.845Z,78.53
2018-02-10T00:41:06.771Z,76.20
2018-02-10T00:43:34.444Z,75.90
2018-02-10T00:46:02.093Z,76.77
2018-02-10T00:48:30.289Z,72.03
2018-02-10T00:51:00.039Z,74.83
2018-02-10T00:53:28.128Z,75.77
2018-02-10T00:55:56.647Z,72.53
2018-02-10T00:58:24.362Z,74.30
2018-02-10T01:00:52.012Z,72.60
2018-02-10T01:03:19.679Z,73.60
2018-02-10T01:05:47.429Z,80.83
2018-02-10T01:08:15.076Z,76.17
2018-02-10T01:10:42.781Z,73.27
2018-02-10T01:13:11.492Z,75.93
2018-02-10T01:15:39.609Z,82.70
2018-02-10T01:18:07.255Z,70.27
2018-02-10T01:20:34.962Z,79.47
2018-02-10T01:23:02.614Z,74.93
2018-02-10T01:25:30.249Z,83.17
2018-02-10T01:27:58.337Z,78.67
2018-02-10T01:30:29.121Z,70.80
2018-02-10T01:32:56.749Z,73.87
2018-02-10T01:35:24.443Z,76.37
2018-02-10T01:37:52.079Z,87.10
2018-02-10T01:40:19.724Z,82.40
2018-02-10T01:42:47.542Z,82.93
2018-02-10T01:45:17.413Z,70.93
2018-02-10T01:47:45.054Z,74.47
2018-02-10T01:53:00.376Z,84.60
2018-02-10T01:55:28.107Z,76.30
2018-02-10T01:57:55.736Z,71.70
2018-02-10T02:00:23.385Z,80.20
2018-02-10T02:02:51.092Z,80.93
2018-02-10T02:05:20.157Z,72.93
2018-02-10T02:07:47.801Z,74.70
2018-02-10T02:10:15.495Z,75.37
2018-02-10T02:12:43.181Z,81.07
2018-02-10T02:15:10.826Z,79.20
2018-02-10T02:17:38.541Z,74.60
2018-02-10T02:20:06.195Z,69.63
2018-02-10T02:22:33.832Z,76.57
2018-02-10T02:25:01.584Z,77.47
2018-02-10T02:27:29.281Z,75.70
2018-02-10T02:29:56.866Z,73.60
2018-02-10T02:32:24.600Z,70.17
2018-02-10T02:34:52.244Z,77.33
2018-02-10T02:39:59.998Z,73.50
2018-02-10T02:42:27.891Z,73.17
2018-02-10T02:44:55.525Z,63.20
2018-02-10T02:47:24.034Z,65.93
2018-02-10T02:49:52.556Z,64.70
2018-02-10T02:52:20.213Z,67.43
2018-02-10T02:54:47.880Z,65.77
2018-02-10T02:57:15.525Z,69.13
2018-02-10T02:59:46.098Z,71.20
2018-02-10T03:02:13.792Z,68.07
2018-02-10T03:04:42.410Z,73.30
2018-02-10T03:07:10.045Z,68.03
2018-02-10T03:09:37.766Z,62.50
2018-02-10T03:12:05.420Z,62.30
2018-02-10T03:14:33.062Z,65.23
2018-02-10T03:17:00.754Z,67.70
2018-02-10T03:19:28.969Z,67.73
2018-02-10T03:21:56.881Z,68.47
2018-02-10T03:24:26.410Z,72.80
2018-02-10T03:26:52.245Z,64.83
2018-02-10T03:29:19.917Z,67.87
2018-02-10T03:31:47.638Z,67.60
2018-02-10T03:34:15.329Z,67.13
2018-02-10T03:36:42.965Z,68.67
2018-02-10T03:39:10.694Z,74.33
2018-02-10T03:41:38.869Z,76.17
2018-02-10T03:44:06.499Z,84.63
2018-02-10T03:46:34.228Z,75.93
2018-02-10T03:51:42.942Z,90.55
2018-02-10T03:54:11.133Z,79.97
2018-02-10T03:56:38.770Z,72.03
2018-02-10T03:59:06.949Z,80.87
2018-02-10T04:01:35.432Z,75.33
2018-02-10T04:04:03.074Z,78.97
2018-02-10T04:06:31.735Z,76.17
2018-02-10T04:08:59.464Z,74.93
2018-02-10T04:11:27.115Z,74.53
2018-02-10T04:13:54.831Z,78.37
2018-02-10T04:16:22.462Z,80.87
2018-02-10T04:18:50.177Z,78.93
2018-02-10T04:21:17.907Z,78.17
2018-02-10T04:23:46.493Z,77.93
2018-02-10T04:26:14.129Z,77.07
2018-02-10T04:28:43.257Z,78.23
2018-02-10T04:31:11.416Z,78.37
2018-02-10T04:33:39.019Z,69.50
2018-02-10T04:36:06.983Z,73.47
2018-02-10T04:38:34.649Z,86.90
2018-02-10T04:41:02.284Z,89.17
2018-02-10T04:43:30.026Z,75.23
2018-02-10T04:45:57.666Z,86.27
2018-02-10T04:48:25.351Z,89.40
2018-02-10T04:50:53.034Z,79.53
2018-02-10T04:53:20.668Z,80.97
2018-02-10T04:55:48.302Z,83.30
2018-02-10T04:58:16.000Z,83.97
2018-02-10T05:00:43.653Z,93.00
2018-02-10T05:03:11.309Z,77.10
2018-02-10T05:05:39.007Z,82.50
2018-02-10T05:08:06.650Z,82.47
2018-02-10T05:10:34.395Z,77.77
2018-02-10T05:15:44.445Z,93.90
2018-02-10T05:18:17.252Z,92.70
2018-02-10T05:20:39.800Z,87.13
2018-02-10T05:23:07.442Z,81.40
2018-02-10T05:25:35.136Z,80.97
2018-02-10T05:28:02.769Z,85.00
2018-02-10T05:30:30.420Z,80.17
2018-02-10T05:32:58.124Z,85.90
2018-02-10T05:35:25.761Z,87.20
2018-02-10T05:37:53.410Z,88.53
2018-02-10T05:40:21.087Z,82.50
2018-02-10T05:42:48.870Z,90.97
2018-02-10T05:45:16.887Z,84.33
2018-02-10T05:47:46.215Z,88.47
2018-02-10T05:50:15.608Z,79.90
2018-02-10T05:52:43.247Z,87.40
2018-02-10T05:55:10.982Z,88.63
2018-02-10T05:57:39.067Z,88.50
2018-02-10T06:00:06.692Z,89.77
2018-02-10T06:02:34.409Z,85.53
2018-02-10T06:05:02.888Z,93.20
2018-02-10T06:07:30.521Z,89.43
2018-02-10T06:09:58.245Z,79.80
2018-02-10T06:12:26.740Z,90.57
2018-02-10T06:14:54.658Z,89.93
2018-02-10T06:17:22.349Z,96.23
2018-02-10T06:19:49.989Z,90.00
2018-02-10T06:22:17.645Z,93.03
2018-02-10T06:24:45.364Z,92.40
2018-02-10T06:27:13.900Z,89.13
2018-02-10T06:29:41.529Z,95.63
2018-02-10T06:32:09.240Z,88.97
2018-02-10T06:34:36.914Z,89.50
2018-02-10T06:39:43.676Z,100.55
2018-02-10T06:42:14.936Z,95.13
2018-02-10T06:44:42.580Z,83.03
2018-02-10T06:47:10.284Z,87.23
2018-02-10T06:49:37.925Z,96.10
2018-02-10T06:52:05.565Z,88.73
2018-02-10T06:54:33.285Z,88.73
2018-02-10T06:57:00.973Z,86.67
2018-02-10T06:59:28.613Z,89.57
2018-02-10T07:01:57.264Z,97.90
2018-02-10T07:04:24.903Z,84.93
2018-02-10T07:06:52.564Z,97.13
2018-02-10T07:09:20.266Z,95.83
2018-02-10T07:11:47.905Z,89.80
2018-02-10T07:14:15.546Z,97.17
2018-02-10T07:16:43.520Z,92.47
2018-02-10T07:19:11.160Z,93.10
2018-02-10T07:21:38.925Z,90.90
2018-02-10T07:24:06.599Z,97.73
2018-02-10T07:26:35.304Z,93.47
2018-02-10T07:29:02.933Z,90.70
2018-02-10T07:31:30.740Z,98.23
2018-02-10T07:33:58.354Z,90.33
2018-02-10T07:36:25.989Z,92.73
2018-02-10T07:38:54.507Z,92.17
2018-02-10T07:41:22.150Z,94.23
2018-02-10T07:43:49.792Z,96.77
2018-02-10T07:46:18.707Z,90.27
2018-02-10T07:48:46.282Z,91.70
2018-02-10T07:51:14.880Z,91.80
2018-02-10T07:53:42.590Z,86.53
2018-02-10T07:56:10.241Z,101.37
2018-02-10T07:58:37.861Z,93.33
2018-02-10T08:01:05.596Z,87.73
2018-02-10T08:03:33.470Z,94.83
2018-02-10T08:08:42.275Z,106.43
2018-02-10T08:11:09.950Z,98.93
2018-02-10T08:13:38.322Z,91.80
2018-02-10T08:16:06.045Z,97.63
2018-02-10T08:18:33.685Z,98.13
2018-02-10T08:21:01.339Z,94.63
2018-02-10T08:23:29.072Z,98.57
2018-02-10T08:25:56.720Z,95.73
2018-02-10T08:28:24.376Z,108.23
2018-02-10T08:30:52.091Z,94.23
2018-02-10T08:33:19.732Z,95.27
2018-02-10T08:35:47.369Z,89.43
2018-02-10T08:38:15.088Z,94.53
2018-02-10T08:40:42.915Z,90.10
2018-02-10T08:43:10.510Z,88.47
2018-02-10T08:45:39.882Z,97.07
2018-02-10T08:48:08.080Z,96.80
2018-02-10T08:50:35.742Z,86.27
2018-02-10T08:53:03.459Z,90.30
2018-02-10T08:55:31.100Z,94.07
2018-02-10T08:57:59.607Z,90.63
2018-02-10T09:00:27.316Z,100.10
2018-02-10T09:02:54.963Z,93.17
2018-02-10T09:05:22.616Z,94.57
2018-02-10T09:07:50.316Z,89.40
2018-02-10T09:10:19.512Z,88.33
2018-02-10T09:12:47.096Z,91.23
2018-02-10T09:15:14.834Z,84.57
2018-02-10T09:17:42.480Z,91.60
2018-02-10T09:20:10.122Z,97.30
2018-02-10T09:22:38.719Z,91.87
2018-02-10T09:25:06.369Z,86.90
2018-02-10T09:27:34.169Z,98.13
2018-02-10T09:30:01.968Z,102.57
2018-02-10T09:35:11.329Z,109.37
2018-02-10T09:40:10.729Z,89.27
2018-02-10T09:42:38.428Z,97.63
2018-02-10T09:45:06.147Z,99.17
2018-02-10T09:47:36.079Z,71.90
2018-02-10T09:50:04.307Z,87.67
2018-02-10T09:52:31.958Z,86.47
2018-02-10T09:57:33.016Z,78.63
2018-02-10T10:00:00.696Z,80.97
2018-02-10T10:02:28.785Z,86.03
2018-02-10T10:04:56.476Z,86.23
2018-02-10T10:07:26.935Z,88.17
2018-02-10T10:09:54.476Z,81.70
2018-02-10T10:12:22.197Z,84.87
2018-02-10T10:14:50.367Z,78.63
2018-02-10T10:17:18.017Z,87.37
2018-02-10T10:19:45.737Z,83.63
2018-02-10T10:22:13.440Z,74.23
2018-02-10T10:24:41.022Z,78.20
2018-02-10T10:27:09.676Z,85.73
2018-02-10T10:29:37.376Z,75.00
2018-02-10T10:32:05.008Z,74.63
2018-02-10T10:34:33.189Z,79.83
2018-02-10T10:37:00.832Z,77.57
2018-02-10T10:39:28.476Z,82.33
2018-02-10T10:41:56.207Z,69.00
2018-02-10T10:44:23.840Z,77.23
2018-02-10T10:46:51.487Z,87.03
2018-02-10T10:49:19.212Z,72.83
2018-02-10T10:51:46.947Z,76.40
2018-02-10T10:54:14.600Z,79.37
2018-02-10T10:56:43.272Z,81.83
2018-02-10T11:01:51.032Z,83.65
2018-02-10T11:04:19.594Z,73.20
2018-02-10T11:06:47.238Z,68.17
2018-02-10T11:09:15.281Z,61.20
2018-02-10T11:11:42.947Z,65.57
2018-02-10T11:14:10.566Z,68.37
2018-02-10T11:16:38.271Z,58.17
2018-02-10T11:19:05.932Z,69.83
2018-02-10T11:21:33.588Z,71.30
2018-02-10T11:24:01.305Z,89.77
2018-02-10T11:26:28.946Z,81.40
2018-02-10T11:28:56.593Z,73.90
2018-02-10T11:31:24.785Z,75.83
2018-02-10T11:33:52.488Z,76.00
2018-02-10T11:36:20.743Z,75.17
2018-02-10T11:38:52.715Z,76.17
2018-02-10T11:41:20.332Z,72.70
2018-02-10T11:43:47.973Z,79.77
2018-02-10T11:46:15.697Z,79.20
2018-02-10T11:48:43.360Z,73.93
2018-02-10T11:51:10.978Z,84.57
2018-02-10T11:53:38.681Z,77.20
2018-02-10T11:56:06.335Z,76.20
2018-02-10T11:58:33.975Z,69.10
2018-02-10T12:01:01.661Z,74.93
2018-02-10T12:03:29.304Z,66.57
2018-02-10T12:05:57.069Z,69.73
2018-02-10T12:08:25.549Z,74.80
2018-02-10T12:10:53.188Z,71.33
2018-02-10T12:13:20.827Z,69.33
2018-02-10T12:15:49.549Z,60.60
2018-02-10T12:18:17.193Z,63.37
2018-02-10T12:20:44.850Z,54.50
2018-02-10T12:23:12.532Z,57.53
2018-02-10T12:28:19.960Z,60.50
2018-02-10T12:30:47.381Z,57.07
2018-02-10T12:33:15.036Z,58.50
2018-02-10T12:35:42.772Z,54.30
2018-02-10T12:38:11.022Z,57.00
2018-02-10T12:40:39.363Z,62.47
2018-02-10T12:43:06.901Z,62.63
2018-02-10T12:45:34.582Z,62.77
2018-02-10T12:50:43.928Z,62.83
2018-02-10T12:53:11.524Z,60.37
2018-02-10T12:55:39.203Z,56.93
2018-02-10T12:58:06.929Z,56.33
2018-02-10T13:00:35.322Z,59.37
2018-02-10T13:03:03.986Z,61.60
2018-02-10T13:05:31.673Z,59.93
2018-02-10T13:07:59.321Z,58.23
2018-02-10T13:10:26.961Z,56.40
2018-02-10T13:12:54.692Z,52.87
2018-02-10T13:15:22.337Z,58.10
2018-02-10T13:17:49.980Z,53.83
2018-02-10T13:20:18.041Z,60.47
2018-02-10T13:22:47.357Z,56.13
2018-02-10T13:25:14.996Z,50.93
2018-02-10T13:27:42.737Z,51.57
2018-02-10T13:30:10.378Z,56.70
2018-02-10T13:32:38.017Z,52.40
2018-02-10T13:35:08.676Z,50.70
2018-02-10T13:37:36.378Z,52.50
2018-02-10T13:40:05.144Z,52.67
2018-02-10T13:42:32.869Z,50.00
2018-02-10T13:45:00.512Z,57.90
2018-02-10T13:47:28.162Z,50.10
2018-02-10T13:49:55.889Z,48.70
2018-02-10T13:52:23.521Z,52.90
2018-02-10T13:54:51.158Z,43.10
2018-02-10T13:57:19.289Z,41.23
2018-02-10T14:02:25.563Z,50.67
2018-02-10T14:04:53.208Z,43.90
2018-02-10T14:07:20.843Z,47.17
2018-02-10T14:09:48.542Z,51.50
2018-02-10T14:12:16.206Z,46.30
2018-02-10T14:14:43.846Z,50.10
2018-02-10T14:17:11.552Z,54.70
2018-02-10T14:19:39.421Z,49.30
2018-02-10T14:22:07.131Z,53.50
2018-02-10T14:24:34.769Z,51.37
2018-02-10T14:27:02.764Z,54.37
2018-02-10T14:29:30.322Z,50.63
2018-02-10T14:31:58.262Z,46.97
2018-02-10T14:34:25.897Z,53.03
2018-02-10T14:36:53.544Z,47.63
2018-02-10T14:39:21.233Z,49.17
2018-02-10T14:41:48.960Z,45.83
2018-02-10T14:44:16.576Z,38.13
2018-02-10T14:46:44.309Z,38.93
2018-02-10T14:49:11.941Z,43.93
2018-02-10T14:51:39.578Z,45.43
2018-02-10T14:54:07.283Z,49.60
2018-02-10T14:56:34.932Z,45.30
2018-02-10T14:59:02.571Z,44.17
2018-02-10T15:01:30.327Z,38.93
2018-02-10T15:03:57.921Z,43.33
2018-02-10T15:06:25.561Z,43.03
2018-02-10T15:08:53.285Z,48.93
2018-02-10T15:11:21.699Z,49.00
2018-02-10T15:13:49.344Z,50.90
2018-02-10T15:16:17.401Z,53.93
2018-02-10T15:18:45.042Z,56.67
2018-02-10T15:21:13.268Z,57.10
2018-02-10T15:23:40.992Z,54.97
2018-02-10T15:30:23.242Z,57.57
2018-02-10T15:32:56.668Z,55.70
2018-02-10T15:35:24.428Z,52.63
2018-02-10T15:37:52.071Z,52.10
2018-02-10T15:40:21.785Z,54.13
2018-02-10T15:42:49.422Z,53.53
2018-02-10T15:45:18.503Z,53.57
2018-02-10T15:47:46.148Z,56.93
2018-02-10T15:50:15.044Z,56.83
2018-02-10T15:52:42.661Z,58.83
2018-02-10T15:55:10.319Z,57.67
2018-02-10T15:57:38.298Z,61.00
2018-02-10T16:00:05.942Z,67.63
2018-02-10T16:02:33.584Z,59.37
2018-02-10T16:05:01.292Z,55.13
2018-02-10T16:07:28.925Z,61.50
2018-02-10T16:09:56.594Z,62.67
2018-02-10T16:12:25.133Z,54.53
2018-02-10T16:14:52.788Z,57.63
2018-02-10T16:17:20.511Z,56.67
2018-02-10T16:19:48.317Z,59.17
2018-02-10T16:22:15.959Z,55.40
2018-02-10T16:24:43.691Z,59.73
2018-02-10T16:27:11.396Z,62.77
2018-02-10T16:29:39.020Z,65.13
2018-02-10T16:32:06.664Z,54.20
2018-02-10T16:34:34.408Z,62.40
2018-02-10T16:37:02.025Z,52.40
2018-02-10T16:39:29.691Z,54.87
2018-02-10T16:41:57.400Z,55.77
2018-02-10T16:44:25.073Z,58.13
2018-02-10T16:46:53.016Z,50.10
2018-02-10T16:49:20.721Z,48.40
2018-02-10T16:51:48.346Z,55.93
2018-02-10T16:56:57.197Z,59.92
2018-02-10T16:59:24.831Z,53.73
2018-02-10T17:01:52.493Z,59.90
2018-02-10T17:04:20.180Z,53.10
2018-02-10T17:06:47.845Z,58.80
2018-02-10T17:09:15.487Z,57.03
2018-02-10T17:11:44.154Z,57.80
2018-02-10T17:14:12.044Z,56.33
2018-02-10T17:16:39.584Z,61.60
2018-02-10T17:19:07.425Z,60.77
2018-02-10T17:21:34.994Z,54.13
2018-02-10T17:24:02.635Z,53.97
2018-02-10T17:26:30.368Z,62.03
2018-02-10T17:28:58.001Z,54.93
2018-02-10T17:31:25.646Z,60.73
2018-02-10T17:33:53.344Z,58.30
2018-02-10T17:36:22.011Z,59.40
2018-02-10T17:38:49.693Z,62.47
2018-02-10T17:41:17.424Z,61.83
2018-02-10T17:43:45.077Z,53.43
2018-02-10T17:46:12.711Z,57.97
2018-02-10T17:48:40.425Z,60.63
2018-02-10T17:51:08.071Z,62.13
2018-02-10T17:53:35.718Z,60.73
2018-02-10T17:56:03.441Z,61.87
2018-02-10T17:58:31.110Z,57.10
2018-02-10T18:00:59.243Z,59.03
2018-02-10T18:03:26.964Z,60.43
2018-02-10T18:05:54.616Z,56.00
2018-02-10T18:08:22.753Z,55.17
2018-02-10T18:10:50.460Z,60.77
2018-02-10T18:13:18.105Z,60.57
2018-02-10T18:15:45.841Z,71.63
2018-02-10T18:18:13.549Z,67.27
2018-02-10T18:23:22.389Z,65.05
2018-02-10T18:25:50.224Z,60.47
2018-02-10T18:28:17.704Z,55.40
2018-02-10T18:30:45.394Z,64.33
2018-02-10T18:33:13.041Z,57.17
2018-02-10T18:35:40.762Z,61.17
2018-02-10T18:38:08.458Z,68.73
2018-02-10T18:40:36.110Z,66.00
2018-02-10T18:43:03.759Z,65.20
2018-02-10T18:45:31.456Z,60.80
2018-02-10T18:47:59.176Z,59.53
2018-02-10T18:50:26.914Z,56.13
2018-02-10T18:52:56.741Z,71.63
2018-02-10T18:55:24.597Z,62.17
2018-02-10T18:57:52.291Z,61.10
2018-02-10T19:00:19.980Z,51.17
2018-02-10T19:02:47.617Z,67.00
2018-02-10T19:07:48.529Z,60.30
2018-02-10T19:10:16.169Z,58.20
2018-02-10T19:12:44.316Z,55.13
2018-02-10T19:15:12.038Z,59.17
2018-02-10T19:17:39.725Z,57.40
2018-02-10T19:20:07.376Z,55.87
2018-02-10T19:22:35.289Z,60.90
2018-02-10T19:25:03.157Z,63.07
2018-02-10T19:27:30.773Z,56.67
2018-02-10T19:29:58.504Z,57.77
2018-02-10T19:32:26.713Z,60.83
2018-02-10T19:34:54.374Z,61.23
2018-02-10T19:37:22.065Z,57.93
2018-02-10T19:39:49.712Z,65.97
2018-02-10T19:42:18.203Z,66.53
2018-02-10T19:44:45.923Z,85.93
2018-02-10T19:49:52.723Z,65.10
2018-02-10T19:52:20.966Z,66.20
2018-02-10T19:54:49.565Z,57.57
2018-02-10T19:57:17.257Z,57.73
2018-02-10T19:59:44.925Z,60.93
2018-02-10T20:02:12.568Z,58.53
2018-02-10T20:04:40.804Z,53.50
2018-02-10T20:07:08.679Z,59.17
2018-02-10T20:09:36.726Z,68.10
2018-02-10T20:12:04.427Z,61.40
2018-02-10T20:14:32.119Z,60.70
2018-02-10T20:16:59.723Z,57.80
2018-02-10T20:19:27.444Z,61.13
2018-02-10T20:21:55.244Z,54.37
2018-02-10T20:24:22.823Z,59.93
2018-02-10T20:26:50.547Z,61.77
2018-02-10T20:29:18.253Z,58.37
2018-02-10T20:31:45.895Z,61.30
2018-02-10T20:34:13.589Z,59.70
2018-02-10T20:36:41.257Z,59.00
2018-02-10T20:39:09.951Z,54.57
2018-02-10T20:41:37.575Z,58.43
2018-02-10T20:44:05.529Z,62.23
2018-02-10T20:46:33.557Z,64.10
2018-02-10T20:49:01.248Z,57.27
2018-02-10T20:51:28.900Z,52.50
2018-02-10T20:53:56.545Z,61.23
2018-02-10T20:56:24.198Z,58.53
2018-02-10T20:58:51.897Z,59.03
2018-02-10T21:01:19.523Z,62.80
2018-02-10T21:03:47.160Z,61.17
2018-02-10T21:06:14.884Z,61.83
2018-02-10T21:08:42.821Z,60.17
2018-02-10T21:11:10.477Z,66.30
2018-02-10T21:16:18.238Z,67.80
2018-02-10T21:18:45.937Z,64.70
2018-02-10T21:23:42.186Z,60.27
2018-02-10T21:26:09.911Z,59.80
2018-02-10T21:28:37.544Z,68.10
2018-02-10T21:31:05.249Z,59.40
2018-02-10T21:33:32.965Z,62.73
2018-02-10T21:36:00.620Z,67.27
2018-02-10T21:38:28.290Z,62.50
2018-02-10T21:40:56.002Z,65.83
2018-02-10T21:43:23.644Z,61.00
2018-02-10T21:45:51.326Z,65.87
2018-02-10T21:48:19.044Z,55.17
2018-02-10T21:50:46.672Z,65.83
2018-02-10T21:53:14.317Z,63.47
2018-02-10T21:55:42.177Z,67.73
2018-02-10T21:58:09.785Z,66.13
2018-02-10T22:00:37.446Z,61.23
2018-02-10T22:03:05.167Z,61.83
2018-02-10T22:05:32.808Z,61.53
2018-02-10T22:08:00.475Z,64.87
2018-02-10T22:10:28.160Z,63.57
2018-02-10T22:12:55.814Z,64.03
2018-02-10T22:15:24.344Z,65.73
2018-02-10T22:17:53.015Z,65.13
2018-02-10T22:20:21.605Z,54.13
2018-02-10T22:22:49.277Z,61.63
2018-02-10T22:25:17.025Z,63.50
2018-02-10T22:27:44.645Z,63.67
2018-02-10T22:30:12.342Z,63.77
2018-02-10T22:32:40.877Z,62.03
2018-02-10T22:37:48.801Z,67.25
2018-02-10T22:40:16.502Z,63.47
2018-02-10T22:45:16.137Z,71.10
2018-02-10T22:47:43.778Z,56.23
2018-02-10T22:50:12.192Z,61.93
2018-02-10T22:52:39.930Z,65.47
2018-02-10T22:55:07.661Z,68.30
2018-02-10T22:57:35.297Z,58.70
2018-02-10T23:02:35.213Z,61.97
2018-02-10T23:05:04.876Z,63.50
2018-02-10T23:10:09.410Z,72.78
2018-02-10T23:12:37.019Z,60.70
2018-02-10T23:15:04.658Z,68.93
2018-02-10T23:17:32.352Z,63.50
2018-02-10T23:20:00.616Z,62.33
2018-02-10T23:22:29.139Z,70.17
2018-02-10T23:24:58.634Z,65.83
2018-02-10T23:27:26.249Z,61.07
2018-02-10T23:29:54.844Z,67.17
2018-02-10T23:32:22.552Z,73.43
2018-02-10T23:34:50.932Z,77.47
2018-02-10T23:37:18.589Z,76.03
2018-02-10T23:39:47.217Z,63.93
2018-02-10T23:42:14.858Z,71.53
2018-02-10T23:44:42.506Z,74.00
2018-02-10T23:49:48.959Z,73.68
2018-02-10T23:52:16.657Z,63.87
2018-02-10T23:54:44.354Z,63.63
2018-02-10T23:57:13.017Z,64.73
2018-02-10T23:59:40.727Z,63.57
